Time;durP1;ratioP1;P1;durP2;ratioP2;P2;SDS_P1;SDS_P2;PMS_P1;PMS_P2;Temp;Humidity;BMP_temperature;BMP_pressure;BME280_temperature;BME280_humidity;BME280_pressure;Samples;Min_cycle;Max_cycle;Signal;HPM_P1;HPM_P2
2023/07/08 00:00:47;;;;;;;11.85;4.80;;;;;;;27.06;42.13;100664.97;5072527;28;20056;-63
2023/07/08 00:03:18;;;;;;;13.85;5.30;;;;;;;27.08;41.82;100668.16;5073603;28;20056;-64
2023/07/08 00:05:47;;;;;;;13.88;5.15;;;;;;;27.07;42.03;100672.22;5072097;28;20079;-64
2023/07/08 00:08:16;;;;;;;10.73;4.72;;;;;;;27.31;42.57;100680.34;5073232;28;20052;-63
2023/07/08 00:10:44;;;;;;;8.80;4.18;;;;;;;27.32;42.16;100678.34;5071588;28;20041;-63
2023/07/08 00:13:11;;;;;;;8.82;4.95;;;;;;;26.94;42.92;100688.94;5072259;28;20052;-63
2023/07/08 00:15:40;;;;;;;11.40;4.93;;;;;;;26.95;43.75;100684.91;5073703;28;20056;-64
2023/07/08 00:18:13;;;;;;;10.52;5.05;;;;;;;27.20;42.84;100687.38;5086850;28;20059;-63
2023/07/08 00:20:45;;;;;;;11.32;6.05;;;;;;;27.29;42.54;100681.97;5108408;28;20037;-63
2023/07/08 00:23:13;;;;;;;8.73;4.63;;;;;;;27.35;42.87;100680.31;5087252;28;20052;-63
2023/07/08 00:25:41;;;;;;;10.95;5.30;;;;;;;27.37;42.88;100684.28;5093833;28;20770;-62
2023/07/08 00:28:17;;;;;;;11.90;6.00;;;;;;;27.07;42.31;100687.16;5069409;28;20052;-64
2023/07/08 00:30:45;;;;;;;11.25;5.40;;;;;;;27.24;42.76;100688.09;5071860;28;20087;-63
2023/07/08 00:33:16;;;;;;;10.43;4.85;;;;;;;27.34;43.05;100690.81;5072443;28;20052;-63
2023/07/08 00:35:45;;;;;;;11.70;5.05;;;;;;;27.31;42.66;100691.66;5072251;28;20416;-63
2023/07/08 00:38:19;;;;;;;11.43;4.63;;;;;;;27.35;42.91;100695.25;5057752;28;20064;-63
2023/07/08 00:40:52;;;;;;;12.98;5.40;;;;;;;27.39;42.89;100706.50;5089222;28;20049;-63
2023/07/08 00:43:24;;;;;;;10.90;5.97;;;;;;;27.33;42.69;100703.38;5056476;28;20082;-63
2023/07/08 00:46:01;;;;;;;10.30;5.45;;;;;;;27.17;42.42;100708.81;5066372;28;20056;-64
2023/07/08 00:48:34;;;;;;;11.43;5.70;;;;;;;27.00;42.01;100701.41;5075445;28;20047;-64
2023/07/08 00:51:10;;;;;;;13.30;5.85;;;;;;;26.89;42.34;100697.91;5076893;28;20051;-62
2023/07/08 00:53:38;;;;;;;13.52;5.47;;;;;;;26.88;42.56;100695.50;5077018;28;20048;-64
2023/07/08 00:56:07;;;;;;;10.65;5.28;;;;;;;26.92;43.43;100697.06;5076695;28;20052;-64
2023/07/08 00:58:40;;;;;;;17.48;5.75;;;;;;;26.96;43.40;100697.81;5075373;28;20063;-64
2023/07/08 01:01:11;;;;;;;9.40;4.65;;;;;;;27.06;43.68;100696.84;5075740;28;20041;-63
2023/07/08 01:03:49;;;;;;;12.27;5.30;;;;;;;27.15;43.51;100694.31;5076584;28;20052;-64
2023/07/08 01:06:18;;;;;;;11.00;5.10;;;;;;;26.96;44.21;100699.81;5059100;28;20052;-64
2023/07/08 01:08:47;;;;;;;10.07;5.20;;;;;;;26.98;43.75;100709.50;5066926;28;20060;-63
2023/07/08 01:11:14;;;;;;;10.02;5.25;;;;;;;26.95;43.58;100706.72;5075973;28;20291;-62
2023/07/08 01:13:43;;;;;;;14.23;5.32;;;;;;;26.95;44.00;100709.56;5076128;28;20052;-63
2023/07/08 01:16:12;;;;;;;11.43;5.80;;;;;;;26.83;44.06;100716.59;5076251;28;20060;-63
2023/07/08 01:18:41;;;;;;;12.15;5.55;;;;;;;26.64;44.25;100706.69;5075075;28;20060;-63
2023/07/08 01:21:38;;;;;;;13.03;5.50;;;;;;;26.97;43.70;100704.28;5076759;28;20060;-64
2023/07/08 01:24:09;;;;;;;9.85;5.13;;;;;;;26.94;44.16;100702.28;5056406;28;20053;-63
2023/07/08 01:26:44;;;;;;;13.55;5.22;;;;;;;26.88;44.26;100696.31;5113170;27;20056;-63
2023/07/08 01:29:13;;;;;;;8.50;5.15;;;;;;;26.97;44.16;100699.41;5089934;28;20049;-63
2023/07/08 01:31:40;;;;;;;10.75;5.57;;;;;;;27.03;43.82;100702.56;5057265;28;20049;-64
2023/07/08 01:34:10;;;;;;;17.55;5.50;;;;;;;26.77;44.11;100698.47;5077195;27;20697;-63
2023/07/08 01:36:42;;;;;;;9.95;5.45;;;;;;;26.91;44.23;100700.31;5077481;27;20052;-63
2023/07/08 01:39:12;;;;;;;9.65;5.97;;;;;;;27.09;44.08;100704.50;5073893;28;20091;-63
2023/07/08 01:41:40;;;;;;;11.07;5.53;;;;;;;26.85;44.03;100719.75;5074766;28;20048;-63
2023/07/08 01:44:22;;;;;;;12.30;5.35;;;;;;;26.48;45.01;100765.78;5075576;28;20049;-63
2023/07/08 01:46:52;;;;;;;8.48;5.32;;;;;;;26.24;45.97;100834.63;5073094;28;20060;-63
2023/07/08 01:49:20;;;;;;;;;;;;;;;26.38;46.14;100845.00;5073708;28;20423;-63
2023/07/08 01:51:48;;;;;;;12.32;5.47;;;;;;;26.26;45.48;100834.22;5076062;28;19920;-62
2023/07/08 01:54:15;;;;;;;11.25;5.07;;;;;;;26.10;46.30;100848.09;5075709;28;20048;-63
2023/07/08 01:56:43;;;;;;;10.85;5.18;;;;;;;26.15;46.25;100834.31;5095762;28;20046;-63
2023/07/08 01:59:11;;;;;;;10.27;5.18;;;;;;;26.02;46.80;100838.03;5128061;27;20078;-63
2023/07/08 02:01:38;;;;;;;10.27;5.00;;;;;;;26.09;46.60;100847.28;5094567;28;20036;-63
2023/07/08 02:04:06;;;;;;;9.15;5.32;;;;;;;26.20;46.28;100844.38;5079050;28;20075;-63
2023/07/08 02:06:35;;;;;;;10.27;5.05;;;;;;;26.19;46.02;100835.09;5071103;28;20040;-63
2023/07/08 02:09:06;;;;;;;10.65;4.85;;;;;;;26.11;46.17;100844.84;5072870;28;20064;-63
2023/07/08 02:11:34;;;;;;;9.18;4.95;;;;;;;25.84;47.47;100848.66;5073642;28;20052;-62
2023/07/08 02:14:04;;;;;;;15.18;5.30;;;;;;;26.07;47.25;100844.06;5074070;28;20053;-51
2023/07/08 02:16:32;;;;;;;10.93;5.00;;;;;;;26.20;46.57;100836.72;5074956;28;20056;-52
2023/07/08 02:18:59;;;;;;;12.25;4.35;;;;;;;25.83;48.60;100818.81;5072134;28;20048;-52
2023/07/08 02:21:30;;;;;;;9.50;4.80;;;;;;;25.64;50.57;100827.81;5075322;28;20052;-51
2023/07/08 02:23:58;;;;;;;9.80;5.07;;;;;;;25.79;49.59;100820.84;5075012;28;20044;-53
2023/07/08 02:26:26;;;;;;;19.92;5.18;;;;;;;25.64;51.83;100817.34;5093378;28;20056;-49
2023/07/08 02:28:55;;;;;;;13.20;4.32;;;;;;;25.44;52.16;100816.22;5072963;28;20064;-50
2023/07/08 02:31:24;;;;;;;8.45;3.90;;;;;;;25.08;53.24;100817.59;5070886;28;20053;-51
2023/07/08 02:33:53;;;;;;;13.38;4.32;;;;;;;24.57;58.05;100803.22;5074532;28;20044;-47
2023/07/08 02:36:21;;;;;;;13.27;4.63;;;;;;;24.58;55.73;100794.41;5075240;28;20057;-54
2023/07/08 02:38:50;;;;;;;9.57;3.90;;;;;;;24.79;54.98;100807.66;5072954;28;20123;-51
2023/07/08 02:41:18;;;;;;;15.97;4.10;;;;;;;25.26;53.57;100792.97;5073312;28;20049;-54
2023/07/08 02:43:46;;;;;;;9.52;3.85;;;;;;;25.36;53.76;100794.91;5073474;28;20044;-51
2023/07/08 02:46:13;;;;;;;15.82;4.35;;;;;;;25.21;54.65;100787.75;5075944;27;20060;-47
2023/07/08 02:48:41;;;;;;;7.53;3.50;;;;;;;25.00;55.22;100782.22;5074614;28;20052;-53
2023/07/08 02:51:09;;;;;;;10.43;3.63;;;;;;;25.01;55.50;100776.16;5073895;28;20056;-53
2023/07/08 02:53:37;;;;;;;6.82;3.75;;;;;;;25.34;53.94;100772.75;5073175;28;20056;-48
2023/07/08 02:56:05;;;;;;;8.35;3.78;;;;;;;25.47;53.12;100767.47;5074486;28;20049;-49
2023/07/08 02:58:35;;;;;;;8.77;3.40;;;;;;;24.16;59.25;100774.75;5074264;28;20052;-53
2023/07/08 03:01:02;;;;;;;8.90;3.38;;;;;;;24.71;55.97;100772.25;5071611;28;20055;-50
2023/07/08 03:03:31;;;;;;;8.70;3.40;;;;;;;25.25;54.29;100765.97;5067960;28;20048;-51
2023/07/08 03:06:05;;;;;;;9.02;4.00;;;;;;;25.34;54.08;100772.75;5074227;28;20059;-50
2023/07/08 03:08:32;;;;;;;9.93;3.20;;;;;;;25.12;54.53;100774.06;5074005;28;20045;-51
2023/07/08 03:11:03;;;;;;;6.45;2.97;;;;;;;25.39;53.68;100765.91;5073888;28;20055;-50
2023/07/08 03:13:32;;;;;;;7.65;3.45;;;;;;;25.42;53.07;100762.25;5074181;28;20040;-51
2023/07/08 03:16:01;;;;;;;;;;;;;;;25.52;53.22;100744.47;5073290;28;20059;-51
2023/07/08 03:18:29;;;;;;;8.68;3.45;;;;;;;25.62;52.85;100740.75;5069179;28;19927;-51
2023/07/08 03:20:57;;;;;;;7.10;3.08;;;;;;;25.63;52.52;100738.75;5085675;28;20067;-50
2023/07/08 03:23:27;;;;;;;6.63;3.10;;;;;;;25.54;52.83;100747.69;5054232;28;20067;-54
2023/07/08 03:25:55;;;;;;;6.68;2.55;;;;;;;25.28;52.80;100754.66;5078363;28;20053;-53
2023/07/08 03:28:25;;;;;;;8.02;2.58;;;;;;;24.91;53.19;100748.84;5053808;28;20044;-48
2023/07/08 03:30:53;;;;;;;5.77;2.47;;;;;;;24.42;56.02;100755.41;5052089;28;20049;-51
2023/07/08 03:33:22;;;;;;;4.78;2.22;;;;;;;24.28;55.99;100751.81;5053268;28;20287;-48
2023/07/08 03:35:50;;;;;;;7.30;2.67;;;;;;;24.04;57.46;100747.03;5054214;28;20057;-50
2023/07/08 03:38:18;;;;;;;7.50;2.53;;;;;;;24.43;56.07;100742.13;5054039;28;20055;-48
2023/07/08 03:40:45;;;;;;;6.82;2.00;;;;;;;24.17;56.15;100734.13;5062530;28;20052;-52
2023/07/08 03:43:13;;;;;;;5.28;2.40;;;;;;;23.50;58.48;100724.91;5074416;28;20395;-49
2023/07/08 03:45:41;;;;;;;8.57;2.90;;;;;;;23.33;60.06;100721.66;5073449;28;20051;-49
2023/07/08 03:48:12;;;;;;;5.45;2.70;;;;;;;23.74;59.16;100710.84;5072730;28;20049;-49
2023/07/08 03:50:41;;;;;;;;;;;;;;;24.19;56.81;100700.75;5072869;28;20768;-46
2023/07/08 03:53:09;;;;;;;6.22;2.33;;;;;;;24.16;57.08;100693.13;5072028;28;19920;-49
2023/07/08 03:55:36;;;;;;;5.25;2.65;;;;;;;24.29;56.90;100683.84;5088412;28;20067;-53
2023/07/08 03:58:05;;;;;;;5.07;2.47;;;;;;;23.62;58.36;100685.94;5074136;28;20412;-50
2023/07/08 04:00:35;;;;;;;6.18;2.78;;;;;;;24.46;56.18;100673.75;5092284;28;20055;-52
2023/07/08 04:03:03;;;;;;;7.05;2.45;;;;;;;24.83;54.53;100673.97;5084923;28;20051;-52
2023/07/08 04:05:32;;;;;;;5.25;2.80;;;;;;;24.91;54.51;100669.13;5073560;28;20445;-49
2023/07/08 04:07:59;;;;;;;6.68;2.90;;;;;;;25.31;52.79;100657.16;5073547;28;20056;-49
2023/07/08 04:10:27;;;;;;;7.82;2.15;;;;;;;25.49;52.47;100664.28;5067954;28;20052;-48
2023/07/08 04:12:55;;;;;;;6.03;2.72;;;;;;;25.45;52.29;100666.31;5109068;28;20055;-51
2023/07/08 04:15:25;;;;;;;6.07;2.42;;;;;;;24.43;53.74;100672.53;5076899;28;20107;-53
2023/07/08 04:17:55;;;;;;;6.28;2.28;;;;;;;24.82;54.59;100661.13;5107364;28;20476;-48
2023/07/08 04:20:23;;;;;;;5.93;2.45;;;;;;;25.16;53.19;100664.09;5059284;28;20048;-49
2023/07/08 04:22:51;;;;;;;6.22;2.35;;;;;;;25.33;52.71;100668.84;5077325;28;20048;-52
2023/07/08 04:25:19;;;;;;;5.43;2.40;;;;;;;25.40;52.29;100685.75;5076146;28;20056;-50
2023/07/08 04:27:47;;;;;;;4.97;2.28;;;;;;;25.54;51.60;100685.63;5071997;28;20048;-49
2023/07/08 04:30:23;;;;;;;8.07;2.38;;;;;;;25.57;51.29;100684.78;5057032;28;20064;-51
2023/07/08 04:32:51;;;;;;;6.32;2.40;;;;;;;25.64;51.39;100696.00;5057376;28;20044;-51
2023/07/08 04:35:19;;;;;;;8.00;2.65;;;;;;;25.71;51.00;100707.25;5089268;28;20052;-53
2023/07/08 04:37:47;;;;;;;4.55;2.25;;;;;;;25.69;50.87;100708.88;5057215;28;20528;-53
2023/07/08 04:40:19;;;;;;;7.07;2.33;;;;;;;25.61;51.52;100710.16;5057199;28;20041;-51
2023/07/08 04:42:49;;;;;;;5.35;2.30;;;;;;;25.67;51.19;100700.00;5072769;28;20052;-50
2023/07/08 04:45:17;;;;;;;5.57;2.67;;;;;;;25.66;51.29;100715.34;5062743;28;20048;-53
2023/07/08 04:47:51;;;;;;;4.35;2.05;;;;;;;25.68;51.49;100712.91;5077222;28;20049;-51
2023/07/08 04:50:20;;;;;;;7.55;2.53;;;;;;;25.69;52.12;100709.66;5075004;28;20091;-52
2023/07/08 04:52:49;;;;;;;5.32;2.28;;;;;;;25.71;51.71;100727.00;5076698;28;20043;-50
2023/07/08 04:55:18;;;;;;;6.55;2.67;;;;;;;25.61;52.10;100727.06;5076327;28;20044;-51
2023/07/08 04:57:46;;;;;;;6.28;2.50;;;;;;;25.51;52.58;100738.03;5077319;28;20079;-53
2023/07/08 05:00:16;;;;;;;6.78;2.58;;;;;;;25.51;52.96;100743.66;5075553;28;20056;-51
2023/07/08 05:02:45;;;;;;;6.95;2.55;;;;;;;25.49;52.57;100743.28;5074947;28;20052;-52
2023/07/08 05:05:12;;;;;;;6.38;2.50;;;;;;;25.74;52.10;100748.72;5076146;28;20064;-54
2023/07/08 05:07:40;;;;;;;6.03;2.13;;;;;;;25.75;52.58;100752.38;5076132;28;20056;-52
2023/07/08 05:10:07;;;;;;;6.55;2.40;;;;;;;25.74;52.62;100739.44;5076746;27;20056;-47
2023/07/08 05:12:38;;;;;;;5.22;2.47;;;;;;;25.64;52.80;100746.81;5075878;28;20052;-48
2023/07/08 05:15:06;;;;;;;7.55;2.55;;;;;;;25.65;52.92;100739.94;5076367;28;20045;-50
2023/07/08 05:17:34;;;;;;;5.05;2.30;;;;;;;25.69;52.87;100737.06;5076390;28;20508;-52
2023/07/08 05:20:03;;;;;;;6.63;2.72;;;;;;;25.70;52.55;100739.47;5076011;28;20048;-50
2023/07/08 05:22:31;;;;;;;5.63;2.40;;;;;;;25.59;53.09;100745.19;5075852;28;20518;-49
2023/07/08 05:24:59;;;;;;;5.30;2.30;;;;;;;25.59;53.05;100762.13;5082540;28;20055;-48
2023/07/08 05:27:27;;;;;;;4.55;2.13;;;;;;;25.76;52.28;100782.16;5091679;28;20101;-52
2023/07/08 05:29:54;;;;;;;4.95;2.47;;;;;;;25.59;52.96;100784.69;5074763;28;20060;-51
2023/07/08 05:32:26;;;;;;;5.57;2.60;;;;;;;25.70;53.19;100783.84;5076278;28;20052;-54
2023/07/08 05:34:54;;;;;;;5.80;2.40;;;;;;;25.79;52.95;100790.63;5076060;28;20057;-49
2023/07/08 05:37:25;;;;;;;6.35;2.42;;;;;;;25.75;53.06;100803.16;5076380;28;20052;-52
2023/07/08 05:39:52;;;;;;;5.55;2.20;;;;;;;25.80;53.05;100806.34;5074256;28;20063;-51
2023/07/08 05:42:23;;;;;;;6.43;2.35;;;;;;;25.66;53.14;100806.44;5074867;28;20048;-52
2023/07/08 05:44:51;;;;;;;7.20;2.55;;;;;;;25.65;53.37;100813.28;5075903;28;20052;-52
2023/07/08 05:47:19;;;;;;;5.10;2.25;;;;;;;25.67;53.48;100822.16;5074653;28;20051;-46
2023/07/08 05:49:47;;;;;;;4.03;2.10;;;;;;;25.67;52.99;100827.78;5074956;28;20063;-50
2023/07/08 05:52:15;;;;;;;5.10;2.38;;;;;;;25.79;53.10;100827.31;5074230;28;20515;-52
2023/07/08 05:54:42;;;;;;;6.05;2.65;;;;;;;25.81;52.56;100838.97;5086101;28;20499;-53
2023/07/08 05:57:11;;;;;;;8.43;2.70;;;;;;;25.68;53.39;100831.41;5084612;28;20044;-50
2023/07/08 05:59:39;;;;;;;7.18;2.40;;;;;;;25.75;52.62;100829.34;5075834;28;20049;-52
2023/07/08 06:02:07;;;;;;;7.47;2.47;;;;;;;25.80;52.50;100842.22;5074332;28;20532;-52
2023/07/08 06:04:34;;;;;;;5.32;2.55;;;;;;;25.80;52.40;100847.88;5090927;28;20045;-50
2023/07/08 06:07:05;;;;;;;5.75;2.47;;;;;;;25.90;52.67;100859.09;5074860;28;20055;-52
2023/07/08 06:09:33;;;;;;;6.82;2.50;;;;;;;25.95;52.22;100855.81;5075651;28;20317;-48
2023/07/08 06:12:00;;;;;;;8.23;2.55;;;;;;;26.03;51.81;100865.09;5074642;28;20052;-49
2023/07/08 06:14:28;;;;;;;5.93;2.65;;;;;;;26.09;51.87;100869.88;5073224;28;20040;-51
2023/07/08 06:16:58;;;;;;;8.95;2.80;;;;;;;26.01;51.95;100879.59;5074110;28;20052;-52
2023/07/08 06:19:25;;;;;;;5.43;2.42;;;;;;;26.02;52.16;100880.38;5073313;28;20071;-52
2023/07/08 06:21:53;;;;;;;6.25;2.22;;;;;;;26.08;51.31;100885.19;5074890;28;20037;-48
2023/07/08 06:24:28;;;;;;;5.40;2.60;;;;;;;26.00;51.58;100889.25;5073917;28;20047;-51
2023/07/08 06:26:55;;;;;;;8.40;2.55;;;;;;;25.76;52.88;100900.69;5074623;28;20083;-49
2023/07/08 06:29:26;;;;;;;5.97;2.10;;;;;;;25.81;52.35;100898.25;5066728;28;20048;-49
2023/07/08 06:31:54;;;;;;;7.13;2.33;;;;;;;25.85;52.34;100898.22;5073078;28;20056;-51
2023/07/08 06:34:23;;;;;;;8.52;2.90;;;;;;;26.03;52.24;100913.84;5072573;28;20066;-50
2023/07/08 06:36:51;;;;;;;6.07;2.63;;;;;;;25.98;51.96;100914.28;5074815;28;20053;-51
2023/07/08 06:39:19;;;;;;;7.10;2.70;;;;;;;25.85;52.22;100920.81;5074928;28;20056;-53
2023/07/08 06:41:47;;;;;;;5.07;2.22;;;;;;;25.87;52.29;100935.31;5072952;28;20531;-51
2023/07/08 06:44:16;;;;;;;8.20;2.30;;;;;;;26.05;51.81;100922.72;5073202;28;20060;-52
2023/07/08 06:46:44;;;;;;;6.35;2.40;;;;;;;26.15;51.35;100924.66;5072709;28;20040;-51
2023/07/08 06:49:12;;;;;;;8.50;2.60;;;;;;;26.09;51.48;100920.69;5074623;28;20056;-51
2023/07/08 06:51:39;;;;;;;5.07;2.00;;;;;;;25.81;52.45;100923.66;5061961;28;20052;-48
2023/07/08 06:54:11;;;;;;;5.90;2.50;;;;;;;26.03;51.92;100919.50;5060726;28;20048;-50
2023/07/08 06:56:39;;;;;;;5.95;2.42;;;;;;;26.15;51.56;100926.72;5088933;28;20055;-49
2023/07/08 06:59:10;;;;;;;7.03;2.42;;;;;;;26.17;51.50;100933.53;5073268;28;20606;-51
2023/07/08 07:01:38;;;;;;;6.25;2.53;;;;;;;26.30;50.98;100940.31;5074220;28;20052;-47
2023/07/08 07:04:06;;;;;;;6.65;2.42;;;;;;;26.12;51.25;100936.78;5106202;28;20051;-53
2023/07/08 07:06:33;;;;;;;6.55;2.50;;;;;;;26.28;50.72;100939.09;5073199;28;20106;-51
2023/07/08 07:09:01;;;;;;;6.72;2.65;;;;;;;26.16;51.26;100945.25;5074037;28;20052;-48
2023/07/08 07:11:28;;;;;;;5.78;2.40;;;;;;;26.23;50.73;100943.19;5072277;28;20071;-48
2023/07/08 07:13:56;;;;;;;6.80;2.58;;;;;;;26.18;51.22;100943.63;5074254;28;20056;-52
2023/07/08 07:16:24;;;;;;;5.25;2.53;;;;;;;26.32;50.57;100940.69;5074272;28;20044;-53
2023/07/08 07:18:51;;;;;;;7.05;2.40;;;;;;;26.29;50.91;100940.72;5073995;28;20052;-52
2023/07/08 07:21:19;;;;;;;7.78;2.50;;;;;;;26.25;50.12;100945.59;5074100;28;20060;-53
2023/07/08 07:23:47;;;;;;;9.95;2.70;;;;;;;26.34;50.04;100943.09;5074079;28;20050;-48
2023/07/08 07:26:14;;;;;;;6.88;3.38;;;;;;;26.62;49.92;100945.72;5089560;28;20044;-48
2023/07/08 07:28:42;;;;;;;11.80;6.30;;;;;;;26.63;49.40;100941.66;5071780;28;20052;-54
2023/07/08 07:31:11;;;;;;;7.72;3.92;;;;;;;26.77;49.37;100933.06;5068350;28;20052;-51
2023/07/08 07:33:38;;;;;;;6.63;2.90;;;;;;;26.62;49.25;100940.06;5102064;28;20044;-52
2023/07/08 07:36:06;;;;;;;5.43;2.15;;;;;;;26.75;48.89;100940.34;5070835;28;20306;-54
2023/07/08 07:38:35;;;;;;;7.13;2.50;;;;;;;26.94;48.51;100951.06;5072866;28;20059;-51
2023/07/08 07:41:05;;;;;;;19.98;14.90;;;;;;;27.10;47.93;100945.66;5072044;28;20052;-50
2023/07/08 07:43:33;;;;;;;6.18;2.83;;;;;;;27.41;47.04;100945.34;5072948;28;20044;-52
2023/07/08 07:46:02;;;;;;;11.60;2.90;;;;;;;27.76;46.24;100948.97;5072431;28;20044;-52
2023/07/08 07:48:30;;;;;;;8.38;2.75;;;;;;;27.82;45.63;100947.25;5072460;28;20056;-55
2023/07/08 07:50:57;;;;;;;8.65;2.95;;;;;;;27.84;46.10;100944.81;5073268;28;20052;-49
2023/07/08 07:53:25;;;;;;;6.32;2.30;;;;;;;27.89;45.50;100939.47;5073424;28;20068;-52
2023/07/08 07:55:58;;;;;;;7.50;2.50;;;;;;;28.07;45.35;100942.09;5073849;28;20162;-51
2023/07/08 07:58:26;;;;;;;5.32;2.60;;;;;;;28.20;44.81;100946.72;5074096;28;20057;-52
2023/07/08 08:00:53;;;;;;;7.32;2.70;;;;;;;28.46;44.52;100950.78;5070564;28;20131;-53
2023/07/08 08:03:21;;;;;;;7.18;2.50;;;;;;;28.50;44.88;100966.50;5063076;28;20052;-51
2023/07/08 08:05:50;;;;;;;6.32;2.60;;;;;;;28.74;44.31;100956.81;5073464;28;20055;-51
2023/07/08 08:08:18;;;;;;;6.53;2.42;;;;;;;28.68;43.92;100958.53;5074072;28;20052;-49
2023/07/08 08:10:46;;;;;;;7.25;2.90;;;;;;;28.62;43.66;100951.75;5072926;28;20049;-51
2023/07/08 08:13:14;;;;;;;6.05;2.67;;;;;;;28.66;43.91;100958.16;5072943;28;20068;-53
2023/07/08 08:15:42;;;;;;;7.15;2.75;;;;;;;28.69;43.77;100957.31;5073632;28;20411;-47
2023/07/08 08:18:09;;;;;;;8.15;2.75;;;;;;;29.01;43.30;100962.44;5067975;28;20045;-51
2023/07/08 08:20:39;;;;;;;9.25;3.40;;;;;;;28.89;43.48;100956.56;5051698;28;20534;-52
2023/07/08 08:23:07;;;;;;;5.93;2.50;;;;;;;28.73;43.64;100963.69;5063033;28;20407;-52
2023/07/08 08:25:34;;;;;;;6.10;2.58;;;;;;;28.66;44.13;100963.03;5082090;28;20636;-49
2023/07/08 08:28:02;;;;;;;9.18;2.70;;;;;;;28.78;43.80;100977.38;5066015;28;20061;-48
2023/07/08 08:30:31;;;;;;;6.60;2.63;;;;;;;28.72;43.97;100984.78;5073482;28;20071;-52
2023/07/08 08:32:59;;;;;;;9.07;2.22;;;;;;;29.01;43.08;100990.78;5073029;28;20057;-54
2023/07/08 08:35:26;;;;;;;4.50;2.50;;;;;;;28.34;44.60;100991.03;5067244;28;20056;-51
2023/07/08 08:37:54;;;;;;;9.57;2.67;;;;;;;27.63;46.21;100991.97;5068596;28;20048;-50
2023/07/08 08:40:22;;;;;;;6.57;3.22;;;;;;;27.55;46.54;100990.47;5073861;28;20044;-50
2023/07/08 08:42:59;;;;;;;9.82;2.90;;;;;;;27.83;46.88;100997.00;5070821;28;20059;-49
2023/07/08 08:45:27;;;;;;;8.57;3.03;;;;;;;27.55;47.11;100998.94;5104799;28;20091;-53
2023/07/08 08:47:59;;;;;;;8.23;3.20;;;;;;;27.02;48.55;101000.69;5086194;28;20071;-49
2023/07/08 08:50:36;;;;;;;5.22;2.50;;;;;;;26.96;49.16;100986.22;5065483;28;20480;-52
2023/07/08 08:53:05;;;;;;;8.07;2.70;;;;;;;27.03;48.97;100988.97;5062833;28;20056;-48
2023/07/08 08:55:33;;;;;;;6.47;2.55;;;;;;;27.03;49.28;100991.78;5053454;28;20139;-51
2023/07/08 08:58:35;;;;;;;7.88;3.25;;;;;;;26.78;49.94;100990.41;5070543;28;20048;-50
2023/07/08 09:01:07;;;;;;;7.43;2.60;;;;;;;26.88;49.95;100998.00;5067621;28;20086;-53
2023/07/08 09:04:10;;;;;;;5.80;2.60;;;;;;;26.70;50.85;100995.31;5079022;28;20048;-51
2023/07/08 09:06:38;;;;;;;7.43;2.63;;;;;;;26.70;50.70;100997.34;5075836;28;20053;-50
2023/07/08 09:09:16;;;;;;;6.38;2.97;;;;;;;26.56;51.62;100998.22;5073712;28;20051;-49
2023/07/08 09:11:57;;;;;;;9.75;3.10;;;;;;;26.54;51.71;101000.66;5072772;28;20059;-48
2023/07/08 09:14:27;;;;;;;7.78;2.90;;;;;;;26.74;51.82;100998.13;5072171;28;20056;-52
2023/07/08 09:17:20;;;;;;;5.25;2.85;;;;;;;26.68;51.25;100994.94;5068125;28;20053;-55
2023/07/08 09:20:13;;;;;;;8.07;3.13;;;;;;;26.77;51.36;100989.63;5100145;28;20052;-51
2023/07/08 09:22:44;;;;;;;8.05;3.30;;;;;;;26.81;50.94;100990.41;5075008;28;20055;-50
2023/07/08 09:25:15;;;;;;;9.52;2.72;;;;;;;26.85;51.38;100985.50;5073462;28;20044;-51
2023/07/08 09:27:43;;;;;;;6.72;2.97;;;;;;;27.05;50.76;100988.53;5075054;28;20047;-52
2023/07/08 09:30:15;;;;;;;7.90;2.90;;;;;;;27.05;50.45;100999.84;5073415;28;20037;-51
2023/07/08 09:32:42;;;;;;;6.65;3.10;;;;;;;27.07;51.05;100991.75;5096780;28;20055;-53
2023/07/08 09:35:22;;;;;;;4.88;2.90;;;;;;;26.72;50.59;101001.38;5069839;28;20056;-49
2023/07/08 09:37:50;;;;;;;6.40;3.00;;;;;;;26.94;50.33;100999.16;5069959;28;20045;-52
2023/07/08 09:40:38;;;;;;;9.77;3.35;;;;;;;27.06;50.69;100998.66;5072584;28;20040;-51
2023/07/08 09:43:14;;;;;;;9.15;3.53;;;;;;;27.13;50.82;100999.38;5071509;28;20415;-53
2023/07/08 09:45:45;;;;;;;7.18;3.15;;;;;;;27.95;49.42;100996.47;5074819;28;20051;-48
2023/07/08 09:48:28;;;;;;;5.75;2.65;;;;;;;28.40;46.64;100992.97;5097702;28;20040;-49
2023/07/08 09:50:57;;;;;;;7.65;2.78;;;;;;;28.61;46.36;100983.38;5069826;28;20052;-49
2023/07/08 09:53:26;;;;;;;9.25;2.97;;;;;;;29.17;45.94;100987.28;5080100;28;20118;-52
2023/07/08 09:55:58;;;;;;;7.45;3.03;;;;;;;29.34;44.17;100998.31;5066702;28;20056;-49
2023/07/08 09:58:37;;;;;;;9.30;2.50;;;;;;;29.51;43.60;100990.66;5103160;28;20048;-52
2023/07/08 10:01:11;;;;;;;6.85;2.80;;;;;;;29.54;43.36;100986.94;5069054;28;20056;-53
2023/07/08 10:03:38;;;;;;;7.28;2.38;;;;;;;29.71;42.07;100986.63;5073521;28;20051;-53
2023/07/08 10:06:32;;;;;;;7.93;2.70;;;;;;;29.48;42.49;100983.03;5071339;28;20044;-53
2023/07/08 10:09:08;;;;;;;7.30;2.35;;;;;;;29.32;43.10;100977.25;5085622;28;20061;-52
2023/07/08 10:11:44;;;;;;;7.18;2.90;;;;;;;29.19;43.61;100973.44;5075580;28;20166;-48
2023/07/08 10:14:27;;;;;;;6.38;3.30;;;;;;;29.20;44.03;100966.56;5086804;28;20056;-51
2023/07/08 10:16:55;;;;;;;6.80;2.85;;;;;;;29.29;44.00;100966.78;5074520;28;20059;-52
2023/07/08 10:19:23;;;;;;;14.90;3.00;;;;;;;28.64;44.43;100960.63;5081075;28;20044;-52
2023/07/08 10:22:21;;;;;;;5.80;2.70;;;;;;;28.55;45.24;100968.88;5068949;28;20056;-51
2023/07/08 10:24:52;;;;;;;11.05;3.00;;;;;;;28.52;45.44;100971.78;5103849;27;20041;-49
2023/07/08 10:27:24;;;;;;;6.10;2.85;;;;;;;28.74;45.04;100975.84;5069935;28;20059;-52
2023/07/08 10:29:54;;;;;;;7.50;2.47;;;;;;;29.09;44.63;100971.59;5076232;28;20053;-52
2023/07/08 10:32:54;;;;;;;6.63;2.70;;;;;;;29.29;43.80;100975.31;5075806;28;20649;-49
2023/07/08 10:35:49;;;;;;;8.82;3.40;;;;;;;29.59;43.07;100975.88;5029698;28;20060;-49
2023/07/08 10:38:33;;;;;;;7.65;2.88;;;;;;;29.60;42.97;100977.50;5047625;28;20053;-52
2023/07/08 10:41:12;;;;;;;8.10;3.67;;;;;;;29.52;43.46;100975.22;5068845;28;20053;-48
2023/07/08 10:43:51;;;;;;;7.82;3.40;;;;;;;29.71;42.52;100978.09;5068162;28;20052;-54
2023/07/08 10:46:27;;;;;;;9.10;3.65;;;;;;;29.63;43.01;100982.31;5063414;28;20054;-51
2023/07/08 10:49:24;;;;;;;8.13;2.70;;;;;;;29.39;42.26;100972.25;5093162;27;20060;-51
2023/07/08 10:52:25;;;;;;;7.70;3.00;;;;;;;29.33;42.83;100976.81;5079385;28;20403;-51
2023/07/08 10:55:14;;;;;;;7.80;2.88;;;;;;;29.64;42.54;100977.44;5098675;27;20131;-52
2023/07/08 10:57:58;;;;;;;4.97;2.83;;;;;;;30.00;41.50;100977.50;5060597;28;20055;-53
2023/07/08 11:00:54;;;;;;;8.18;3.83;;;;;;;30.00;41.52;100977.50;5051409;28;20048;-47
2023/07/08 11:03:37;;;;;;;7.28;3.40;;;;;;;30.01;42.08;100974.22;5063054;28;20044;-53
2023/07/08 11:06:13;;;;;;;6.43;3.22;;;;;;;30.11;41.90;100966.69;5066857;28;20044;-48
2023/07/08 11:08:59;;;;;;;7.90;3.15;;;;;;;30.14;42.13;100962.97;5071099;28;20048;-50
2023/07/08 11:11:41;;;;;;;7.70;3.47;;;;;;;30.40;41.80;100962.78;5065061;28;20552;-51
2023/07/08 11:14:13;;;;;;;6.22;2.83;;;;;;;30.17;41.38;100962.88;5082509;28;20051;-57
2023/07/08 11:16:45;;;;;;;6.43;2.53;;;;;;;30.25;41.18;100966.41;5067662;28;20047;-51
2023/07/08 11:19:18;;;;;;;8.95;3.53;;;;;;;30.16;41.07;100966.16;5066873;28;20055;-52
2023/07/08 11:21:47;;;;;;;6.10;2.70;;;;;;;30.33;41.58;100965.78;5068475;28;20051;-48
2023/07/08 11:24:50;;;;;;;5.88;2.80;;;;;;;30.41;41.33;100953.00;5068085;28;20063;-51
2023/07/08 11:27:29;;;;;;;6.40;2.90;;;;;;;30.37;40.67;100957.19;5052578;28;20056;-53
2023/07/08 11:30:19;;;;;;;5.38;2.53;;;;;;;29.67;42.47;100954.66;5066158;28;20613;-52
2023/07/08 11:32:48;;;;;;;7.47;2.85;;;;;;;29.82;42.76;100950.28;5066080;28;20060;-53
2023/07/08 11:35:20;;;;;;;8.68;3.33;;;;;;;29.78;41.95;100946.72;5066653;28;20051;-49
2023/07/08 11:37:48;;;;;;;6.80;3.27;;;;;;;29.70;42.02;100948.13;5065394;28;20044;-49
2023/07/08 11:40:22;;;;;;;9.68;3.00;;;;;;;29.98;41.62;100946.69;5091194;28;20041;-52
2023/07/08 11:42:51;;;;;;;6.00;3.28;;;;;;;30.35;40.82;100953.97;5062603;28;20064;-51